sensor_id;sensor_type;location;lat;lon;timestamp;temperature;humidity
62904;DHT22;49000;50.698;13.322;2023-04-12T00:01:45;-0.30;99.90
62904;DHT22;49000;50.698;13.322;2023-04-12T00:04:10;-0.10;99.90
62904;DHT22;49000;50.698;13.322;2023-04-12T00:06:38;0.10;99.90
62904;DHT22;49000;50.698;13.322;2023-04-12T00:09:04;0.20;99.90
62904;DHT22;49000;50.698;13.322;2023-04-12T00:11:30;-0.10;99.90
62904;DHT22;49000;50.698;13.322;2023-04-12T00:13:56;0.20;99.90
62904;DHT22;49000;50.698;13.322;2023-04-12T00:16:22;0.00;99.90
62904;DHT22;49000;50.698;13.322;2023-04-12T00:18:48;-0.10;99.90
62904;DHT22;49000;50.698;13.322;2023-04-12T00:21:15;0.30;99.90
62904;DHT22;49000;50.698;13.322;2023-04-12T00:23:45;0.20;99.90
62904;DHT22;49000;50.698;13.322;2023-04-12T00:26:12;0.10;99.90
62904;DHT22;49000;50.698;13.322;2023-04-12T00:28:38;-0.10;99.90
62904;DHT22;49000;50.698;13.322;2023-04-12T00:31:03;0.30;99.90
62904;DHT22;49000;50.698;13.322;2023-04-12T00:33:29;0.00;99.90
62904;DHT22;49000;50.698;13.322;2023-04-12T00:35:54;-0.30;99.90
62904;DHT22;49000;50.698;13.322;2023-04-12T00:38:20;0.10;99.90
62904;DHT22;49000;50.698;13.322;2023-04-12T00:40:45;0.00;99.90
62904;DHT22;49000;50.698;13.322;2023-04-12T00:43:11;0.10;99.90
62904;DHT22;49000;50.698;13.322;2023-04-12T00:45:40;0.00;99.90
62904;DHT22;49000;50.698;13.322;2023-04-12T00:48:06;0.30;99.90
62904;DHT22;49000;50.698;13.322;2023-04-12T00:50:34;0.10;99.90
62904;DHT22;49000;50.698;13.322;2023-04-12T00:52:59;0.10;99.90
62904;DHT22;49000;50.698;13.322;2023-04-12T00:55:25;-0.40;99.90
62904;DHT22;49000;50.698;13.322;2023-04-12T00:57:51;0.30;99.90
62904;DHT22;49000;50.698;13.322;2023-04-12T01:00:17;-0.30;99.90
62904;DHT22;49000;50.698;13.322;2023-04-12T01:02:44;0.10;99.90
62904;DHT22;49000;50.698;13.322;2023-04-12T01:05:17;-0.20;99.90
62904;DHT22;49000;50.698;13.322;2023-04-12T01:07:54;0.20;99.90
62904;DHT22;49000;50.698;13.322;2023-04-12T01:10:43;0.10;99.90
62904;DHT22;49000;50.698;13.322;2023-04-12T01:15:59;0.00;99.90
62904;DHT22;49000;50.698;13.322;2023-04-12T01:18:29;-0.10;99.90
62904;DHT22;49000;50.698;13.322;2023-04-12T01:21:04;-0.40;99.90
62904;DHT22;49000;50.698;13.322;2023-04-12T01:24:14;-0.30;99.90
62904;DHT22;49000;50.698;13.322;2023-04-12T01:26:46;-0.40;99.90
62904;DHT22;49000;50.698;13.322;2023-04-12T01:29:18;-0.40;99.90
62904;DHT22;49000;50.698;13.322;2023-04-12T01:31:53;-0.40;99.90
62904;DHT22;49000;50.698;13.322;2023-04-12T01:34:21;-0.40;99.90
62904;DHT22;49000;50.698;13.322;2023-04-12T01:36:47;-0.20;99.90
62904;DHT22;49000;50.698;13.322;2023-04-12T01:39:13;-0.40;99.90
62904;DHT22;49000;50.698;13.322;2023-04-12T01:41:40;-0.40;99.90
62904;DHT22;49000;50.698;13.322;2023-04-12T01:44:12;-0.30;99.90
62904;DHT22;49000;50.698;13.322;2023-04-12T01:46:37;-0.30;99.90
62904;DHT22;49000;50.698;13.322;2023-04-12T01:49:03;-0.90;99.90
62904;DHT22;49000;50.698;13.322;2023-04-12T01:51:54;-0.20;99.90
62904;DHT22;49000;50.698;13.322;2023-04-12T01:54:27;-0.50;99.90
62904;DHT22;49000;50.698;13.322;2023-04-12T01:56:55;-0.90;99.90
62904;DHT22;49000;50.698;13.322;2023-04-12T01:59:25;-0.90;99.90
62904;DHT22;49000;50.698;13.322;2023-04-12T02:01:51;-0.60;99.90
62904;DHT22;49000;50.698;13.322;2023-04-12T02:04:18;-0.70;99.90
62904;DHT22;49000;50.698;13.322;2023-04-12T02:06:45;-0.70;99.90
62904;DHT22;49000;50.698;13.322;2023-04-12T02:09:11;-0.80;99.90
62904;DHT22;49000;50.698;13.322;2023-04-12T02:11:37;-1.30;99.90
62904;DHT22;49000;50.698;13.322;2023-04-12T02:14:02;-0.90;99.90
62904;DHT22;49000;50.698;13.322;2023-04-12T02:16:27;-1.30;99.90
62904;DHT22;49000;50.698;13.322;2023-04-12T02:18:53;-0.80;99.90
62904;DHT22;49000;50.698;13.322;2023-04-12T02:21:21;-0.90;99.90
62904;DHT22;49000;50.698;13.322;2023-04-12T02:23:47;-1.00;99.90
62904;DHT22;49000;50.698;13.322;2023-04-12T02:26:12;-1.40;99.90
62904;DHT22;49000;50.698;13.322;2023-04-12T02:28:38;-1.30;99.90
62904;DHT22;49000;50.698;13.322;2023-04-12T02:31:04;-0.90;99.90
62904;DHT22;49000;50.698;13.322;2023-04-12T02:33:30;-1.00;99.90
62904;DHT22;49000;50.698;13.322;2023-04-12T02:35:56;-1.10;99.90
62904;DHT22;49000;50.698;13.322;2023-04-12T02:38:22;-0.80;99.90
62904;DHT22;49000;50.698;13.322;2023-04-12T02:40:47;-1.20;99.90
62904;DHT22;49000;50.698;13.322;2023-04-12T02:43:13;-1.10;99.90
62904;DHT22;49000;50.698;13.322;2023-04-12T02:45:38;-1.10;99.90
62904;DHT22;49000;50.698;13.322;2023-04-12T02:48:04;-1.20;99.90
62904;DHT22;49000;50.698;13.322;2023-04-12T02:50:30;-1.10;99.90
62904;DHT22;49000;50.698;13.322;2023-04-12T02:52:55;-1.40;99.90
62904;DHT22;49000;50.698;13.322;2023-04-12T02:55:21;-0.90;99.90
62904;DHT22;49000;50.698;13.322;2023-04-12T02:57:46;-1.00;99.90
62904;DHT22;49000;50.698;13.322;2023-04-12T03:00:13;-1.40;99.90
62904;DHT22;49000;50.698;13.322;2023-04-12T03:02:42;-1.00;99.90
62904;DHT22;49000;50.698;13.322;2023-04-12T03:05:08;-1.10;99.90
62904;DHT22;49000;50.698;13.322;2023-04-12T03:07:34;-1.10;99.90
62904;DHT22;49000;50.698;13.322;2023-04-12T03:10:00;-1.40;99.90
62904;DHT22;49000;50.698;13.322;2023-04-12T03:12:26;-1.30;99.90
62904;DHT22;49000;50.698;13.322;2023-04-12T03:14:53;-1.30;99.90
62904;DHT22;49000;50.698;13.322;2023-04-12T03:17:18;-1.10;99.90
62904;DHT22;49000;50.698;13.322;2023-04-12T03:19:44;-1.20;99.90
62904;DHT22;49000;50.698;13.322;2023-04-12T03:22:10;-1.20;99.90
62904;DHT22;49000;50.698;13.322;2023-04-12T03:24:35;-1.20;99.90
62904;DHT22;49000;50.698;13.322;2023-04-12T03:27:02;-1.70;99.90
62904;DHT22;49000;50.698;13.322;2023-04-12T03:29:29;-1.10;99.90
62904;DHT22;49000;50.698;13.322;2023-04-12T03:31:55;-0.90;99.90
62904;DHT22;49000;50.698;13.322;2023-04-12T03:34:26;-1.00;99.90
62904;DHT22;49000;50.698;13.322;2023-04-12T03:36:56;-1.00;99.90
62904;DHT22;49000;50.698;13.322;2023-04-12T03:39:22;-1.10;99.90
62904;DHT22;49000;50.698;13.322;2023-04-12T03:41:48;-1.60;99.90
62904;DHT22;49000;50.698;13.322;2023-04-12T03:44:13;-1.10;99.90
62904;DHT22;49000;50.698;13.322;2023-04-12T03:46:39;-0.80;99.90
62904;DHT22;49000;50.698;13.322;2023-04-12T03:49:04;-1.50;99.90
62904;DHT22;49000;50.698;13.322;2023-04-12T03:51:30;-1.30;99.90
62904;DHT22;49000;50.698;13.322;2023-04-12T03:53:55;-0.90;99.90
62904;DHT22;49000;50.698;13.322;2023-04-12T03:56:21;-1.00;99.90
62904;DHT22;49000;50.698;13.322;2023-04-12T03:58:47;-1.30;99.90
62904;DHT22;49000;50.698;13.322;2023-04-12T04:01:12;-1.00;99.90
62904;DHT22;49000;50.698;13.322;2023-04-12T04:03:39;-0.80;99.90
62904;DHT22;49000;50.698;13.322;2023-04-12T04:06:05;-0.90;99.90
62904;DHT22;49000;50.698;13.322;2023-04-12T04:08:31;-1.10;99.90
62904;DHT22;49000;50.698;13.322;2023-04-12T04:10:58;-0.90;99.90
62904;DHT22;49000;50.698;13.322;2023-04-12T04:13:23;-0.90;99.90
62904;DHT22;49000;50.698;13.322;2023-04-12T04:16:03;-1.20;99.90
62904;DHT22;49000;50.698;13.322;2023-04-12T04:18:29;-0.70;99.90
62904;DHT22;49000;50.698;13.322;2023-04-12T04:20:55;-1.40;99.90
62904;DHT22;49000;50.698;13.322;2023-04-12T04:23:20;-0.70;99.90
62904;DHT22;49000;50.698;13.322;2023-04-12T04:25:47;-0.90;99.90
62904;DHT22;49000;50.698;13.322;2023-04-12T04:28:13;-0.70;99.90
62904;DHT22;49000;50.698;13.322;2023-04-12T04:30:40;-1.20;99.90
62904;DHT22;49000;50.698;13.322;2023-04-12T04:33:06;-0.60;99.90
62904;DHT22;49000;50.698;13.322;2023-04-12T04:35:32;-0.60;99.90
62904;DHT22;49000;50.698;13.322;2023-04-12T04:37:57;-0.80;99.90
62904;DHT22;49000;50.698;13.322;2023-04-12T04:40:24;-0.50;99.90
62904;DHT22;49000;50.698;13.322;2023-04-12T04:42:50;-0.70;99.90
62904;DHT22;49000;50.698;13.322;2023-04-12T04:45:22;-0.50;99.90
62904;DHT22;49000;50.698;13.322;2023-04-12T04:47:54;-0.50;99.90
62904;DHT22;49000;50.698;13.322;2023-04-12T04:50:20;-0.40;99.90
62904;DHT22;49000;50.698;13.322;2023-04-12T04:52:47;-0.30;99.90
62904;DHT22;49000;50.698;13.322;2023-04-12T04:55:13;-0.20;99.90
62904;DHT22;49000;50.698;13.322;2023-04-12T04:57:39;-0.30;99.90
62904;DHT22;49000;50.698;13.322;2023-04-12T05:00:06;-0.20;99.90
62904;DHT22;49000;50.698;13.322;2023-04-12T05:02:35;-0.20;99.90
62904;DHT22;49000;50.698;13.322;2023-04-12T05:05:01;0.10;99.90
62904;DHT22;49000;50.698;13.322;2023-04-12T05:07:28;0.30;99.90
62904;DHT22;49000;50.698;13.322;2023-04-12T05:09:54;0.10;99.90
62904;DHT22;49000;50.698;13.322;2023-04-12T05:12:19;0.20;99.90
62904;DHT22;49000;50.698;13.322;2023-04-12T05:14:45;0.20;99.90
62904;DHT22;49000;50.698;13.322;2023-04-12T05:17:11;-0.10;99.90
62904;DHT22;49000;50.698;13.322;2023-04-12T05:19:36;0.70;99.90
62904;DHT22;49000;50.698;13.322;2023-04-12T05:22:02;0.80;99.90
62904;DHT22;49000;50.698;13.322;2023-04-12T05:24:27;0.40;99.90
62904;DHT22;49000;50.698;13.322;2023-04-12T05:26:52;0.80;99.90
62904;DHT22;49000;50.698;13.322;2023-04-12T05:29:18;0.60;99.90
62904;DHT22;49000;50.698;13.322;2023-04-12T05:31:43;1.30;99.90
62904;DHT22;49000;50.698;13.322;2023-04-12T05:34:09;1.30;99.90
62904;DHT22;49000;50.698;13.322;2023-04-12T05:36:34;1.30;99.90
62904;DHT22;49000;50.698;13.322;2023-04-12T05:39:00;1.10;99.90
62904;DHT22;49000;50.698;13.322;2023-04-12T05:41:25;1.60;99.90
62904;DHT22;49000;50.698;13.322;2023-04-12T05:43:51;1.40;99.90
62904;DHT22;49000;50.698;13.322;2023-04-12T05:46:17;1.60;99.90
62904;DHT22;49000;50.698;13.322;2023-04-12T05:48:42;1.60;99.90
62904;DHT22;49000;50.698;13.322;2023-04-12T05:51:08;1.70;99.90
62904;DHT22;49000;50.698;13.322;2023-04-12T05:53:33;1.70;99.90
62904;DHT22;49000;50.698;13.322;2023-04-12T05:55:58;1.70;99.90
62904;DHT22;49000;50.698;13.322;2023-04-12T05:58:24;2.40;99.90
62904;DHT22;49000;50.698;13.322;2023-04-12T06:00:49;1.90;99.90
62904;DHT22;49000;50.698;13.322;2023-04-12T06:03:15;2.40;99.90
62904;DHT22;49000;50.698;13.322;2023-04-12T06:05:41;2.30;99.90
62904;DHT22;49000;50.698;13.322;2023-04-12T06:08:06;2.70;99.90
62904;DHT22;49000;50.698;13.322;2023-04-12T06:10:32;2.50;99.90
62904;DHT22;49000;50.698;13.322;2023-04-12T06:12:58;2.70;99.90
62904;DHT22;49000;50.698;13.322;2023-04-12T06:15:23;2.70;99.90
62904;DHT22;49000;50.698;13.322;2023-04-12T06:17:49;3.00;99.90
62904;DHT22;49000;50.698;13.322;2023-04-12T06:20:15;3.00;99.90
62904;DHT22;49000;50.698;13.322;2023-04-12T06:22:41;3.40;99.90
62904;DHT22;49000;50.698;13.322;2023-04-12T06:25:07;3.30;99.90
62904;DHT22;49000;50.698;13.322;2023-04-12T06:27:32;4.00;99.90
62904;DHT22;49000;50.698;13.322;2023-04-12T06:29:58;3.90;99.90
62904;DHT22;49000;50.698;13.322;2023-04-12T06:32:24;4.70;99.90
62904;DHT22;49000;50.698;13.322;2023-04-12T06:34:50;4.60;99.90
62904;DHT22;49000;50.698;13.322;2023-04-12T06:37:15;4.50;99.90
62904;DHT22;49000;50.698;13.322;2023-04-12T06:39:41;5.10;99.90
62904;DHT22;49000;50.698;13.322;2023-04-12T06:42:06;5.30;99.90
62904;DHT22;49000;50.698;13.322;2023-04-12T06:44:32;4.80;99.90
62904;DHT22;49000;50.698;13.322;2023-04-12T06:46:58;5.30;99.90
62904;DHT22;49000;50.698;13.322;2023-04-12T06:49:24;5.40;99.90
62904;DHT22;49000;50.698;13.322;2023-04-12T06:51:50;5.10;99.90
62904;DHT22;49000;50.698;13.322;2023-04-12T06:54:16;5.30;99.90
62904;DHT22;49000;50.698;13.322;2023-04-12T06:56:41;5.60;99.90
62904;DHT22;49000;50.698;13.322;2023-04-12T06:59:07;5.80;99.90
62904;DHT22;49000;50.698;13.322;2023-04-12T07:01:33;5.80;99.90
62904;DHT22;49000;50.698;13.322;2023-04-12T07:03:58;6.10;99.90
62904;DHT22;49000;50.698;13.322;2023-04-12T07:06:24;6.40;99.90
62904;DHT22;49000;50.698;13.322;2023-04-12T07:08:49;6.50;99.90
62904;DHT22;49000;50.698;13.322;2023-04-12T07:11:15;6.80;99.90
62904;DHT22;49000;50.698;13.322;2023-04-12T07:13:40;6.30;99.90
62904;DHT22;49000;50.698;13.322;2023-04-12T07:16:06;6.80;99.90
62904;DHT22;49000;50.698;13.322;2023-04-12T07:18:31;6.90;96.30
62904;DHT22;49000;50.698;13.322;2023-04-12T07:20:57;7.00;99.90
62904;DHT22;49000;50.698;13.322;2023-04-12T07:23:23;7.10;98.80
62904;DHT22;49000;50.698;13.322;2023-04-12T07:25:50;7.20;99.00
62904;DHT22;49000;50.698;13.322;2023-04-12T07:28:15;7.40;98.50
62904;DHT22;49000;50.698;13.322;2023-04-12T07:30:41;7.30;74.00
62904;DHT22;49000;50.698;13.322;2023-04-12T07:33:06;7.70;83.50
62904;DHT22;49000;50.698;13.322;2023-04-12T07:35:32;7.90;77.90
62904;DHT22;49000;50.698;13.322;2023-04-12T07:37:58;8.00;48.00
62904;DHT22;49000;50.698;13.322;2023-04-12T07:40:24;8.10;60.90
62904;DHT22;49000;50.698;13.322;2023-04-12T07:42:49;8.20;53.50
62904;DHT22;49000;50.698;13.322;2023-04-12T07:45:15;8.40;47.00
62904;DHT22;49000;50.698;13.322;2023-04-12T07:47:40;8.50;42.60
62904;DHT22;49000;50.698;13.322;2023-04-12T07:50:06;8.60;49.20
62904;DHT22;49000;50.698;13.322;2023-04-12T07:52:32;8.70;42.70
62904;DHT22;49000;50.698;13.322;2023-04-12T07:54:58;8.90;40.00
62904;DHT22;49000;50.698;13.322;2023-04-12T07:57:23;9.10;48.00
62904;DHT22;49000;50.698;13.322;2023-04-12T07:59:50;9.20;30.00
62904;DHT22;49000;50.698;13.322;2023-04-12T08:02:16;9.30;28.40
62904;DHT22;49000;50.698;13.322;2023-04-12T08:04:55;9.40;28.30
62904;DHT22;49000;50.698;13.322;2023-04-12T08:07:20;9.30;22.80
62904;DHT22;49000;50.698;13.322;2023-04-12T08:09:47;9.10;22.30
62904;DHT22;49000;50.698;13.322;2023-04-12T08:12:13;9.20;34.00
62904;DHT22;49000;50.698;13.322;2023-04-12T08:14:38;9.10;27.10
62904;DHT22;49000;50.698;13.322;2023-04-12T08:17:04;9.20;27.40
62904;DHT22;49000;50.698;13.322;2023-04-12T08:19:29;9.40;19.60
62904;DHT22;49000;50.698;13.322;2023-04-12T08:21:55;9.50;24.20
62904;DHT22;49000;50.698;13.322;2023-04-12T08:24:22;9.60;18.60
62904;DHT22;49000;50.698;13.322;2023-04-12T08:26:47;9.80;22.80
62904;DHT22;49000;50.698;13.322;2023-04-12T08:29:13;10.00;14.50
62904;DHT22;49000;50.698;13.322;2023-04-12T08:31:38;10.10;17.40
62904;DHT22;49000;50.698;13.322;2023-04-12T08:34:04;10.40;11.20
62904;DHT22;49000;50.698;13.322;2023-04-12T08:36:29;10.60;6.10
62904;DHT22;49000;50.698;13.322;2023-04-12T08:38:59;10.50;7.50
62904;DHT22;49000;50.698;13.322;2023-04-12T08:41:25;10.60;6.90
62904;DHT22;49000;50.698;13.322;2023-04-12T08:43:51;10.60;1.00
62904;DHT22;49000;50.698;13.322;2023-04-12T08:46:17;10.80;2.00
62904;DHT22;49000;50.698;13.322;2023-04-12T08:48:47;10.60;3.30
62904;DHT22;49000;50.698;13.322;2023-04-12T08:51:17;10.70;1.00
62904;DHT22;49000;50.698;13.322;2023-04-12T08:53:43;10.80;1.00
62904;DHT22;49000;50.698;13.322;2023-04-12T08:56:10;10.80;1.00
62904;DHT22;49000;50.698;13.322;2023-04-12T08:58:40;10.70;1.00
62904;DHT22;49000;50.698;13.322;2023-04-12T09:01:11;10.70;1.00
62904;DHT22;49000;50.698;13.322;2023-04-12T09:03:41;10.80;1.00
62904;DHT22;49000;50.698;13.322;2023-04-12T09:06:07;10.90;1.00
62904;DHT22;49000;50.698;13.322;2023-04-12T09:08:33;10.80;1.00
62904;DHT22;49000;50.698;13.322;2023-04-12T09:10:58;10.80;1.00
62904;DHT22;49000;50.698;13.322;2023-04-12T09:13:31;10.80;1.00
62904;DHT22;49000;50.698;13.322;2023-04-12T09:15:57;10.70;1.00
62904;DHT22;49000;50.698;13.322;2023-04-12T09:18:22;10.70;1.00
62904;DHT22;49000;50.698;13.322;2023-04-12T09:20:48;10.70;1.00
62904;DHT22;49000;50.698;13.322;2023-04-12T09:23:16;11.00;1.00
62904;DHT22;49000;50.698;13.322;2023-04-12T09:25:42;11.30;1.00
62904;DHT22;49000;50.698;13.322;2023-04-12T09:28:23;11.40;1.00
62904;DHT22;49000;50.698;13.322;2023-04-12T09:30:50;11.40;1.00
62904;DHT22;49000;50.698;13.322;2023-04-12T09:33:20;11.10;1.00
62904;DHT22;49000;50.698;13.322;2023-04-12T09:35:46;10.90;1.00
62904;DHT22;49000;50.698;13.322;2023-04-12T09:38:13;10.70;1.00
62904;DHT22;49000;50.698;13.322;2023-04-12T09:40:39;10.90;1.00
62904;DHT22;49000;50.698;13.322;2023-04-12T09:43:05;10.90;1.00
62904;DHT22;49000;50.698;13.322;2023-04-12T09:45:34;10.90;1.00
62904;DHT22;49000;50.698;13.322;2023-04-12T09:47:59;10.60;1.00
62904;DHT22;49000;50.698;13.322;2023-04-12T09:50:29;10.50;1.00
62904;DHT22;49000;50.698;13.322;2023-04-12T09:52:58;10.60;1.00
62904;DHT22;49000;50.698;13.322;2023-04-12T09:55:25;10.60;1.00
62904;DHT22;49000;50.698;13.322;2023-04-12T09:57:53;10.40;1.00
62904;DHT22;49000;50.698;13.322;2023-04-12T10:00:21;10.20;1.00
62904;DHT22;49000;50.698;13.322;2023-04-12T10:02:49;10.20;1.00
62904;DHT22;49000;50.698;13.322;2023-04-12T10:05:17;10.30;1.00
62904;DHT22;49000;50.698;13.322;2023-04-12T10:07:44;10.30;1.00
62904;DHT22;49000;50.698;13.322;2023-04-12T10:10:11;10.20;1.00
62904;DHT22;49000;50.698;13.322;2023-04-12T10:12:38;10.50;1.00
62904;DHT22;49000;50.698;13.322;2023-04-12T10:15:06;10.70;1.60
62904;DHT22;49000;50.698;13.322;2023-04-12T10:17:40;10.70;1.00
62904;DHT22;49000;50.698;13.322;2023-04-12T10:20:06;10.50;1.00
62904;DHT22;49000;50.698;13.322;2023-04-12T10:22:32;10.40;1.00
62904;DHT22;49000;50.698;13.322;2023-04-12T10:24:58;10.50;1.00
62904;DHT22;49000;50.698;13.322;2023-04-12T10:27:25;10.50;1.00
62904;DHT22;49000;50.698;13.322;2023-04-12T10:29:51;10.50;1.70
62904;DHT22;49000;50.698;13.322;2023-04-12T10:32:22;10.70;1.00
62904;DHT22;49000;50.698;13.322;2023-04-12T10:34:53;10.50;1.00
62904;DHT22;49000;50.698;13.322;2023-04-12T10:37:19;10.70;1.50
62904;DHT22;49000;50.698;13.322;2023-04-12T10:39:51;10.70;1.00
62904;DHT22;49000;50.698;13.322;2023-04-12T10:44:43;10.50;1.00
62904;DHT22;49000;50.698;13.322;2023-04-12T10:47:09;10.60;1.00
62904;DHT22;49000;50.698;13.322;2023-04-12T10:49:35;10.90;2.30
62904;DHT22;49000;50.698;13.322;2023-04-12T10:54:34;11.00;1.00
62904;DHT22;49000;50.698;13.322;2023-04-12T10:57:00;10.90;1.00
62904;DHT22;49000;50.698;13.322;2023-04-12T10:59:50;11.20;1.00
62904;DHT22;49000;50.698;13.322;2023-04-12T11:02:16;11.20;1.00
62904;DHT22;49000;50.698;13.322;2023-04-12T11:07:42;10.90;1.00
62904;DHT22;49000;50.698;13.322;2023-04-12T11:10:14;10.70;1.00
62904;DHT22;49000;50.698;13.322;2023-04-12T11:12:41;10.50;1.00
62904;DHT22;49000;50.698;13.322;2023-04-12T11:15:11;10.60;1.00
62904;DHT22;49000;50.698;13.322;2023-04-12T11:17:37;10.90;1.00
62904;DHT22;49000;50.698;13.322;2023-04-12T11:20:02;11.00;1.00
62904;DHT22;49000;50.698;13.322;2023-04-12T11:22:31;11.20;1.00
62904;DHT22;49000;50.698;13.322;2023-04-12T11:24:58;11.40;1.00
62904;DHT22;49000;50.698;13.322;2023-04-12T11:27:25;11.40;1.00
62904;DHT22;49000;50.698;13.322;2023-04-12T11:29:52;11.20;1.00
62904;DHT22;49000;50.698;13.322;2023-04-12T11:32:21;11.40;1.00
62904;DHT22;49000;50.698;13.322;2023-04-12T11:34:47;11.40;1.00
62904;DHT22;49000;50.698;13.322;2023-04-12T11:37:13;11.50;1.00
62904;DHT22;49000;50.698;13.322;2023-04-12T11:39:43;11.60;1.00
62904;DHT22;49000;50.698;13.322;2023-04-12T11:42:17;11.70;1.00
62904;DHT22;49000;50.698;13.322;2023-04-12T11:44:44;11.60;1.00
62904;DHT22;49000;50.698;13.322;2023-04-12T11:47:17;11.50;1.00
62904;DHT22;49000;50.698;13.322;2023-04-12T11:49:51;11.30;1.00
62904;DHT22;49000;50.698;13.322;2023-04-12T11:52:17;11.40;1.00
62904;DHT22;49000;50.698;13.322;2023-04-12T11:54:48;11.30;1.00
62904;DHT22;49000;50.698;13.322;2023-04-12T11:57:15;11.10;1.00
62904;DHT22;49000;50.698;13.322;2023-04-12T11:59:43;11.10;1.00
62904;DHT22;49000;50.698;13.322;2023-04-12T12:02:10;11.20;1.00
62904;DHT22;49000;50.698;13.322;2023-04-12T12:04:36;11.20;1.00
62904;DHT22;49000;50.698;13.322;2023-04-12T12:07:03;11.30;1.00
62904;DHT22;49000;50.698;13.322;2023-04-12T12:09:28;11.40;1.00
62904;DHT22;49000;50.698;13.322;2023-04-12T12:11:55;11.30;1.00
62904;DHT22;49000;50.698;13.322;2023-04-12T12:14:22;11.30;1.00
62904;DHT22;49000;50.698;13.322;2023-04-12T12:16:57;11.20;1.00
62904;DHT22;49000;50.698;13.322;2023-04-12T12:19:35;10.90;1.00
62904;DHT22;49000;50.698;13.322;2023-04-12T12:24:38;10.70;1.00
62904;DHT22;49000;50.698;13.322;2023-04-12T12:27:03;10.70;1.00
62904;DHT22;49000;50.698;13.322;2023-04-12T12:29:36;10.60;1.00
62904;DHT22;49000;50.698;13.322;2023-04-12T12:32:09;10.70;1.00
62904;DHT22;49000;50.698;13.322;2023-04-12T12:34:35;10.60;1.00
62904;DHT22;49000;50.698;13.322;2023-04-12T12:37:01;10.70;1.00
62904;DHT22;49000;50.698;13.322;2023-04-12T12:39:26;10.70;1.00
62904;DHT22;49000;50.698;13.322;2023-04-12T12:41:53;10.70;1.00
62904;DHT22;49000;50.698;13.322;2023-04-12T12:44:22;10.60;1.00
62904;DHT22;49000;50.698;13.322;2023-04-12T12:46:48;10.70;1.00
62904;DHT22;49000;50.698;13.322;2023-04-12T12:49:13;10.70;1.00
62904;DHT22;49000;50.698;13.322;2023-04-12T12:51:40;10.70;1.00
62904;DHT22;49000;50.698;13.322;2023-04-12T12:54:06;10.60;1.00
62904;DHT22;49000;50.698;13.322;2023-04-12T12:56:31;10.60;1.00
62904;DHT22;49000;50.698;13.322;2023-04-12T12:58:57;10.70;1.00
62904;DHT22;49000;50.698;13.322;2023-04-12T13:01:22;10.50;1.00
62904;DHT22;49000;50.698;13.322;2023-04-12T13:03:48;10.30;1.00
62904;DHT22;49000;50.698;13.322;2023-04-12T13:06:14;10.30;1.00
62904;DHT22;49000;50.698;13.322;2023-04-12T13:08:40;10.20;1.00
62904;DHT22;49000;50.698;13.322;2023-04-12T13:11:06;10.10;1.00
62904;DHT22;49000;50.698;13.322;2023-04-12T13:13:31;10.00;1.00
62904;DHT22;49000;50.698;13.322;2023-04-12T13:15:57;9.90;1.00
62904;DHT22;49000;50.698;13.322;2023-04-12T13:18:22;9.90;1.70
62904;DHT22;49000;50.698;13.322;2023-04-12T13:20:48;9.90;2.70
62904;DHT22;49000;50.698;13.322;2023-04-12T13:23:13;9.90;3.90
62904;DHT22;49000;50.698;13.322;2023-04-12T13:25:39;9.90;6.30
62904;DHT22;49000;50.698;13.322;2023-04-12T13:28:05;9.90;8.40
62904;DHT22;49000;50.698;13.322;2023-04-12T13:30:30;9.90;9.40
62904;DHT22;49000;50.698;13.322;2023-04-12T13:32:56;9.90;11.70
62904;DHT22;49000;50.698;13.322;2023-04-12T13:35:21;9.70;15.60
62904;DHT22;49000;50.698;13.322;2023-04-12T13:37:47;9.40;16.70
62904;DHT22;49000;50.698;13.322;2023-04-12T13:40:12;9.30;22.30
62904;DHT22;49000;50.698;13.322;2023-04-12T13:42:38;9.00;25.60
62904;DHT22;49000;50.698;13.322;2023-04-12T13:45:04;9.00;27.60
62904;DHT22;49000;50.698;13.322;2023-04-12T13:47:31;8.90;32.00
62904;DHT22;49000;50.698;13.322;2023-04-12T13:49:59;8.80;38.80
62904;DHT22;49000;50.698;13.322;2023-04-12T13:52:25;8.80;57.30
62904;DHT22;49000;50.698;13.322;2023-04-12T13:54:50;8.90;65.60
62904;DHT22;49000;50.698;13.322;2023-04-12T13:57:16;9.00;60.80
62904;DHT22;49000;50.698;13.322;2023-04-12T13:59:41;9.10;63.20
62904;DHT22;49000;50.698;13.322;2023-04-12T14:02:07;9.10;55.60
62904;DHT22;49000;50.698;13.322;2023-04-12T14:04:32;9.10;66.00
62904;DHT22;49000;50.698;13.322;2023-04-12T14:06:58;9.10;69.00
62904;DHT22;49000;50.698;13.322;2023-04-12T14:09:25;9.00;63.60
62904;DHT22;49000;50.698;13.322;2023-04-12T14:11:52;8.90;72.80
62904;DHT22;49000;50.698;13.322;2023-04-12T14:14:20;8.80;91.10
62904;DHT22;49000;50.698;13.322;2023-04-12T14:16:48;8.80;99.90
62904;DHT22;49000;50.698;13.322;2023-04-12T14:19:13;8.70;99.90
62904;DHT22;49000;50.698;13.322;2023-04-12T14:21:39;8.80;99.90
62904;DHT22;49000;50.698;13.322;2023-04-12T14:24:05;8.80;99.90
62904;DHT22;49000;50.698;13.322;2023-04-12T14:26:31;8.80;99.90
62904;DHT22;49000;50.698;13.322;2023-04-12T14:28:56;8.80;99.90
62904;DHT22;49000;50.698;13.322;2023-04-12T14:31:22;8.90;99.90
62904;DHT22;49000;50.698;13.322;2023-04-12T14:33:47;9.00;99.90
62904;DHT22;49000;50.698;13.322;2023-04-12T14:36:13;8.90;99.90
62904;DHT22;49000;50.698;13.322;2023-04-12T14:38:41;8.90;99.90
62904;DHT22;49000;50.698;13.322;2023-04-12T14:41:08;8.90;99.90
62904;DHT22;49000;50.698;13.322;2023-04-12T14:43:34;8.80;99.90
62904;DHT22;49000;50.698;13.322;2023-04-12T14:45:59;8.80;99.90
62904;DHT22;49000;50.698;13.322;2023-04-12T14:48:25;8.70;99.90
62904;DHT22;49000;50.698;13.322;2023-04-12T14:50:50;8.60;99.90
62904;DHT22;49000;50.698;13.322;2023-04-12T14:53:16;8.60;99.90
62904;DHT22;49000;50.698;13.322;2023-04-12T14:55:43;8.60;99.90
62904;DHT22;49000;50.698;13.322;2023-04-12T14:58:11;8.60;99.90
62904;DHT22;49000;50.698;13.322;2023-04-12T15:00:36;8.60;99.90
62904;DHT22;49000;50.698;13.322;2023-04-12T15:03:02;8.60;99.90
62904;DHT22;49000;50.698;13.322;2023-04-12T15:05:29;8.60;99.90
62904;DHT22;49000;50.698;13.322;2023-04-12T15:07:55;8.50;99.90
62904;DHT22;49000;50.698;13.322;2023-04-12T15:10:21;8.50;99.90
62904;DHT22;49000;50.698;13.322;2023-04-12T15:12:47;8.50;99.90
62904;DHT22;49000;50.698;13.322;2023-04-12T15:15:13;8.60;99.90
62904;DHT22;49000;50.698;13.322;2023-04-12T15:17:39;8.60;99.90
62904;DHT22;49000;50.698;13.322;2023-04-12T15:20:06;8.50;99.90
62904;DHT22;49000;50.698;13.322;2023-04-12T15:22:35;8.50;99.90
62904;DHT22;49000;50.698;13.322;2023-04-12T15:25:02;8.50;99.90
62904;DHT22;49000;50.698;13.322;2023-04-12T15:27:28;8.60;99.90
62904;DHT22;49000;50.698;13.322;2023-04-12T15:29:58;8.50;99.90
62904;DHT22;49000;50.698;13.322;2023-04-12T15:32:27;8.50;99.90
62904;DHT22;49000;50.698;13.322;2023-04-12T15:34:53;8.50;99.90
62904;DHT22;49000;50.698;13.322;2023-04-12T15:37:22;8.40;99.90
62904;DHT22;49000;50.698;13.322;2023-04-12T15:39:48;8.30;99.90